createdAt,value
2018-09-15T00:01:01.704Z,5.60
2018-09-15T00:03:30.191Z,5.43
2018-09-15T00:05:58.667Z,5.10
2018-09-15T00:08:27.358Z,5.00
2018-09-15T00:10:55.846Z,5.67
2018-09-15T00:13:24.368Z,4.43
2018-09-15T00:15:52.860Z,5.13
2018-09-15T00:18:21.300Z,4.73
2018-09-15T00:20:49.769Z,4.67
2018-09-15T00:23:18.271Z,4.70
2018-09-15T00:25:46.732Z,5.80
2018-09-15T00:28:15.259Z,5.47
2018-09-15T00:30:43.715Z,4.73
2018-09-15T00:33:12.199Z,4.77
2018-09-15T00:35:40.663Z,5.57
2018-09-15T00:38:09.136Z,4.70
2018-09-15T00:40:37.605Z,4.83
2018-09-15T00:43:06.347Z,5.43
2018-09-15T00:45:34.794Z,4.90
2018-09-15T00:48:03.266Z,4.83
2018-09-15T00:50:31.732Z,4.50
2018-09-15T00:53:00.507Z,4.80
2018-09-15T00:55:29.228Z,4.83
2018-09-15T00:57:57.696Z,4.67
2018-09-15T01:00:26.533Z,5.13
2018-09-15T01:02:55.042Z,4.40
2018-09-15T01:05:23.547Z,4.80
2018-09-15T01:07:52.017Z,4.67
2018-09-15T01:10:20.502Z,4.60
2018-09-15T01:12:48.964Z,5.13
2018-09-15T01:15:17.412Z,5.27
2018-09-15T01:17:45.871Z,4.63
2018-09-15T01:20:14.392Z,4.47
2018-09-15T01:22:42.836Z,4.67
2018-09-15T01:25:11.281Z,5.20
2018-09-15T01:27:39.789Z,4.63
2018-09-15T01:30:08.281Z,3.93
2018-09-15T01:32:36.987Z,4.93
2018-09-15T01:35:05.468Z,5.00
2018-09-15T01:37:33.932Z,4.57
2018-09-15T01:40:02.413Z,4.43
2018-09-15T01:42:30.840Z,4.87
2018-09-15T01:44:59.333Z,4.67
2018-09-15T01:47:27.821Z,4.50
2018-09-15T01:49:56.592Z,5.33
2018-09-15T01:52:25.127Z,4.90
2018-09-15T01:54:53.900Z,5.03
2018-09-15T01:57:22.640Z,5.20
2018-09-15T01:59:51.115Z,4.60
2018-09-15T02:02:19.671Z,5.37
2018-09-15T02:04:48.184Z,4.47
2018-09-15T02:07:17.010Z,5.03
2018-09-15T02:09:45.466Z,5.60
2018-09-15T02:12:13.897Z,4.90
2018-09-15T02:14:42.374Z,4.53
2018-09-15T02:17:11.079Z,4.73
2018-09-15T02:19:39.564Z,5.77
2018-09-15T02:22:08.283Z,4.60
2018-09-15T02:24:36.792Z,5.60
2018-09-15T02:27:05.269Z,5.60
2018-09-15T02:29:33.995Z,5.53
2018-09-15T02:32:02.436Z,5.43
2018-09-15T02:34:30.886Z,5.20
2018-09-15T02:36:59.619Z,5.60
2018-09-15T02:39:28.368Z,6.40
2018-09-15T02:41:56.787Z,5.57
2018-09-15T02:44:25.506Z,5.30
2018-09-15T02:46:53.939Z,6.90
2018-09-15T02:49:22.382Z,6.23
2018-09-15T02:51:51.490Z,5.53
2018-09-15T02:54:19.949Z,6.20
2018-09-15T02:56:48.377Z,6.20
2018-09-15T02:59:17.395Z,5.80
2018-09-15T03:01:45.820Z,5.73
2018-09-15T03:04:14.241Z,5.77
2018-09-15T03:06:42.658Z,5.43
2018-09-15T03:09:12.628Z,5.10
2018-09-15T03:11:41.316Z,4.80
2018-09-15T03:14:10.103Z,5.20
2018-09-15T03:16:39.283Z,6.20
2018-09-15T03:19:08.000Z,6.37
2018-09-15T03:21:36.463Z,6.00
2018-09-15T03:24:04.868Z,7.43
2018-09-15T03:26:33.803Z,6.70
2018-09-15T03:29:02.280Z,6.50
2018-09-15T03:31:30.763Z,6.10
2018-09-15T03:33:59.198Z,6.80
2018-09-15T03:36:27.963Z,6.20
2018-09-15T03:38:56.371Z,6.43
2018-09-15T03:41:25.246Z,7.20
2018-09-15T03:43:53.630Z,6.90
2018-09-15T03:46:22.354Z,7.30
2018-09-15T03:48:50.788Z,7.37
2018-09-15T03:51:19.235Z,6.33
2018-09-15T03:53:47.663Z,6.63
2018-09-15T03:56:16.163Z,6.53
2018-09-15T03:58:44.619Z,5.77
2018-09-15T04:01:13.266Z,6.70
2018-09-15T04:03:41.928Z,6.43
2018-09-15T04:06:10.605Z,5.67
2018-09-15T04:08:39.028Z,6.57
2018-09-15T04:11:14.237Z,6.03
2018-09-15T04:13:42.676Z,6.03
2018-09-15T04:16:11.147Z,6.90
2018-09-15T04:18:39.600Z,5.40
2018-09-15T04:21:08.088Z,5.43
2018-09-15T04:23:36.501Z,6.27
2018-09-15T04:26:05.040Z,6.00
2018-09-15T04:28:33.555Z,6.47
2018-09-15T04:31:01.943Z,5.97
2018-09-15T04:33:30.468Z,6.03
2018-09-15T04:35:58.886Z,6.10
2018-09-15T04:38:27.320Z,6.63
2018-09-15T04:40:55.742Z,7.10
2018-09-15T04:43:24.166Z,6.57
2018-09-15T04:45:52.887Z,6.90
2018-09-15T04:48:21.311Z,6.33
2018-09-15T04:50:49.765Z,6.30
2018-09-15T04:53:18.478Z,6.97
2018-09-15T04:55:47.398Z,7.00
2018-09-15T04:58:15.843Z,8.10
2018-09-15T05:00:44.307Z,6.67
2018-09-15T05:03:13.080Z,7.40
2018-09-15T05:05:41.512Z,7.47
2018-09-15T05:08:10.012Z,7.23
2018-09-15T05:10:38.424Z,7.20
2018-09-15T05:13:07.409Z,6.97
2018-09-15T05:15:35.868Z,7.70
2018-09-15T05:18:04.313Z,7.07
2018-09-15T05:20:33.077Z,8.30
2018-09-15T05:23:01.756Z,7.37
2018-09-15T05:25:30.171Z,6.97
2018-09-15T05:27:58.652Z,7.73
2018-09-15T05:30:27.087Z,7.37
2018-09-15T05:32:55.772Z,7.40
2018-09-15T05:35:24.198Z,8.40
2018-09-15T05:37:52.659Z,8.50
2018-09-15T05:40:21.138Z,7.73
2018-09-15T05:42:49.887Z,7.90
2018-09-15T05:45:18.315Z,7.67
2018-09-15T05:47:46.796Z,7.17
2018-09-15T05:50:15.595Z,8.17
2018-09-15T05:52:44.024Z,8.80
2018-09-15T05:55:12.521Z,7.57
2018-09-15T05:57:41.004Z,7.50
2018-09-15T06:00:09.516Z,8.07
2018-09-15T06:02:38.069Z,7.60
2018-09-15T06:05:06.837Z,7.40
2018-09-15T06:07:35.295Z,7.20
2018-09-15T06:10:04.068Z,7.83
2018-09-15T06:12:32.803Z,8.17
2018-09-15T06:15:01.277Z,8.07
2018-09-15T06:17:30.015Z,8.20
2018-09-15T06:19:58.497Z,7.37
2018-09-15T06:22:27.001Z,7.73
2018-09-15T06:24:55.473Z,7.50
2018-09-15T06:27:24.244Z,7.67
2018-09-15T06:29:52.742Z,7.83
2018-09-15T06:32:21.199Z,8.70
2018-09-15T06:34:49.699Z,7.37
2018-09-15T06:37:18.123Z,8.13
2018-09-15T06:39:46.583Z,8.43
2018-09-15T06:42:15.583Z,8.40
2018-09-15T06:44:44.052Z,8.20
2018-09-15T06:47:12.532Z,8.60
2018-09-15T06:49:40.968Z,9.77
2018-09-15T06:52:09.551Z,8.33
2018-09-15T06:54:38.044Z,9.10
2018-09-15T06:57:06.522Z,7.80
2018-09-15T06:59:35.019Z,8.43
2018-09-15T07:02:03.504Z,7.93
2018-09-15T07:04:32.291Z,8.33
2018-09-15T07:07:01.019Z,8.50
2018-09-15T07:09:30.220Z,8.13
2018-09-15T07:11:58.896Z,8.27
2018-09-15T07:14:27.638Z,8.50
2018-09-15T07:16:56.331Z,9.50
2018-09-15T07:19:25.061Z,8.80
2018-09-15T07:21:53.528Z,9.90
2018-09-15T07:24:22.313Z,9.03
2018-09-15T07:26:50.789Z,9.87
2018-09-15T07:29:19.231Z,8.63
2018-09-15T07:31:47.688Z,9.13
2018-09-15T07:34:16.726Z,9.63
2018-09-15T07:36:45.511Z,8.60
2018-09-15T07:39:13.985Z,9.30
2018-09-15T07:41:42.480Z,8.80
2018-09-15T07:44:10.900Z,8.40
2018-09-15T07:46:39.645Z,8.90
2018-09-15T07:49:08.674Z,9.27
2018-09-15T07:51:37.128Z,7.87
2018-09-15T07:54:05.833Z,7.67
2018-09-15T07:56:34.296Z,7.80
2018-09-15T07:59:03.046Z,7.57
2018-09-15T08:01:31.543Z,8.27
2018-09-15T08:04:00.286Z,6.90
2018-09-15T08:06:29.307Z,8.20
2018-09-15T08:08:57.739Z,7.70
2018-09-15T08:11:26.491Z,7.13
2018-09-15T08:13:54.890Z,6.50
2018-09-15T08:16:23.352Z,7.70
2018-09-15T08:18:51.767Z,5.97
2018-09-15T08:21:20.211Z,6.00
2018-09-15T08:23:49.063Z,5.77
2018-09-15T08:26:17.943Z,6.10
2018-09-15T08:28:46.368Z,6.67
2018-09-15T08:31:15.131Z,6.17
2018-09-15T08:33:43.887Z,6.13
2018-09-15T08:36:12.646Z,5.93
2018-09-15T08:38:41.516Z,7.13
2018-09-15T08:41:09.989Z,5.43
2018-09-15T08:43:38.439Z,6.07
2018-09-15T08:46:07.221Z,5.10
2018-09-15T08:48:35.728Z,4.97
2018-09-15T08:51:04.168Z,4.93
2018-09-15T08:53:32.624Z,4.50
2018-09-15T08:56:01.158Z,4.80
2018-09-15T08:58:29.575Z,5.00
2018-09-15T09:00:57.996Z,5.23
2018-09-15T09:03:26.679Z,4.80
2018-09-15T09:05:55.086Z,5.40
2018-09-15T09:08:23.607Z,5.97
2018-09-15T09:10:52.266Z,4.87
2018-09-15T09:13:21.357Z,4.40
2018-09-15T09:15:49.964Z,4.87
2018-09-15T09:18:18.409Z,5.20
2018-09-15T09:20:46.839Z,5.77
2018-09-15T09:23:15.598Z,9.53
2018-09-15T09:25:44.313Z,6.70
2018-09-15T09:28:12.788Z,4.70
2018-09-15T09:30:41.232Z,5.03
2018-09-15T09:33:09.812Z,4.23
2018-09-15T09:35:38.573Z,4.60
2018-09-15T09:38:07.136Z,4.33
2018-09-15T09:40:35.778Z,4.47
2018-09-15T09:43:04.244Z,4.37
2018-09-15T09:45:32.750Z,3.80
2018-09-15T09:48:01.366Z,6.57
2018-09-15T09:50:29.796Z,3.53
2018-09-15T09:52:58.844Z,4.70
2018-09-15T09:55:27.319Z,3.50
2018-09-15T09:57:55.779Z,3.67
2018-09-15T10:01:29.239Z,3.23
2018-09-15T10:03:59.327Z,3.00
2018-09-15T10:06:28.169Z,3.70
2018-09-15T10:08:56.922Z,2.73
2018-09-15T10:11:25.463Z,2.50
2018-09-15T10:13:53.936Z,2.30
2018-09-15T10:16:22.884Z,2.33
2018-09-15T10:18:51.352Z,2.77
2018-09-15T10:21:19.917Z,2.43
2018-09-15T10:23:48.379Z,2.43
2018-09-15T10:26:16.877Z,2.80
2018-09-15T10:28:45.374Z,2.43
2018-09-15T10:31:13.918Z,2.60
2018-09-15T10:33:42.661Z,2.27
2018-09-15T10:36:11.420Z,2.20
2018-09-15T10:38:40.057Z,2.37
2018-09-15T10:41:08.926Z,1.87
2018-09-15T10:43:37.440Z,1.90
2018-09-15T10:46:06.013Z,2.17
2018-09-15T10:48:35.051Z,1.63
2018-09-15T10:51:03.764Z,1.47
2018-09-15T10:53:32.464Z,1.67
2018-09-15T10:56:00.985Z,1.43
2018-09-15T10:58:29.995Z,1.80
2018-09-15T11:00:58.892Z,1.60
2018-09-15T11:03:27.648Z,2.90
2018-09-15T11:05:56.185Z,1.40
2018-09-15T11:08:24.662Z,1.20
2018-09-15T11:10:53.895Z,1.47
2018-09-15T11:13:22.683Z,1.47
2018-09-15T11:15:51.099Z,1.17
2018-09-15T11:18:19.847Z,1.30
2018-09-15T11:20:48.632Z,1.30
2018-09-15T11:23:17.370Z,1.27
2018-09-15T11:25:45.843Z,1.10
2018-09-15T11:28:14.489Z,1.17
2018-09-15T11:30:43.279Z,1.33
2018-09-15T11:33:11.782Z,1.10
2018-09-15T11:35:40.652Z,1.30
2018-09-15T11:38:09.089Z,1.20
2018-09-15T11:40:37.625Z,1.30
2018-09-15T11:43:06.142Z,1.57
2018-09-15T11:45:34.620Z,1.40
2018-09-15T11:48:03.256Z,1.30
2018-09-15T11:50:31.608Z,1.47
2018-09-15T11:53:00.371Z,1.70
2018-09-15T11:55:29.166Z,1.10
2018-09-15T11:57:57.640Z,1.40
2018-09-15T12:00:30.245Z,1.40
2018-09-15T12:02:58.727Z,1.10
2018-09-15T12:05:27.175Z,1.40
2018-09-15T12:07:55.698Z,1.20
2018-09-15T12:10:24.144Z,1.20
2018-09-15T12:12:52.672Z,1.30
2018-09-15T12:15:21.111Z,1.30
2018-09-15T12:17:49.605Z,1.30
2018-09-15T12:20:18.290Z,1.30
2018-09-15T12:22:46.780Z,1.83
2018-09-15T12:25:15.284Z,1.30
2018-09-15T12:27:44.466Z,1.30
2018-09-15T12:30:12.957Z,1.20
2018-09-15T12:32:41.446Z,1.17
2018-09-15T12:35:10.140Z,1.20
2018-09-15T12:37:38.925Z,1.20
2018-09-15T12:40:08.232Z,1.40
2018-09-15T12:42:37.008Z,1.30
2018-09-15T12:45:05.589Z,1.30
2018-09-15T12:47:34.008Z,1.30
2018-09-15T12:50:02.456Z,1.07
2018-09-15T12:52:31.066Z,3.20
2018-09-15T12:54:59.507Z,0.87
2018-09-15T12:57:27.965Z,1.00
2018-09-15T12:59:56.769Z,1.20
2018-09-15T13:02:25.236Z,1.10
2018-09-15T13:04:53.679Z,1.10
2018-09-15T13:07:22.647Z,1.10
2018-09-15T13:09:51.433Z,1.20
2018-09-15T13:12:22.856Z,1.10
2018-09-15T13:14:51.566Z,1.10
2018-09-15T13:17:20.010Z,1.10
2018-09-15T13:19:48.455Z,1.20
2018-09-15T13:22:16.883Z,0.80
2018-09-15T13:24:45.342Z,1.20
2018-09-15T13:27:14.066Z,1.23
2018-09-15T13:29:43.037Z,1.17
2018-09-15T13:32:11.936Z,1.00
2018-09-15T13:34:40.431Z,1.13
2018-09-15T13:37:08.879Z,0.90
2018-09-15T13:39:37.340Z,1.47
2018-09-15T13:42:05.842Z,1.00
2018-09-15T13:44:34.297Z,1.00
2018-09-15T13:47:02.743Z,1.20
2018-09-15T13:49:31.256Z,1.03
2018-09-15T13:52:00.176Z,1.17
2018-09-15T13:54:28.715Z,0.90
2018-09-15T13:56:57.180Z,1.30
2018-09-15T13:59:25.983Z,0.90
2018-09-15T14:01:54.506Z,1.20
2018-09-15T14:04:23.484Z,0.97
2018-09-15T14:06:51.912Z,1.00
2018-09-15T14:09:20.648Z,1.10
2018-09-15T14:11:49.392Z,0.90
2018-09-15T14:14:17.846Z,1.00
2018-09-15T14:16:46.970Z,1.20
2018-09-15T14:19:15.940Z,1.20
2018-09-15T14:21:44.396Z,0.90
2018-09-15T14:24:12.828Z,0.93
2018-09-15T14:26:41.285Z,1.10
2018-09-15T14:29:09.750Z,1.10
2018-09-15T14:31:38.560Z,1.10
2018-09-15T14:34:07.007Z,1.10
2018-09-15T14:36:35.757Z,1.30
2018-09-15T14:39:06.180Z,1.10
2018-09-15T14:41:34.966Z,1.10
2018-09-15T14:44:03.458Z,1.00
2018-09-15T14:46:32.426Z,1.07
2018-09-15T14:49:01.156Z,1.00
2018-09-15T14:51:29.634Z,1.10
2018-09-15T14:53:58.063Z,0.90
2018-09-15T14:56:26.602Z,1.07
2018-09-15T14:58:55.403Z,1.37
2018-09-15T15:01:23.879Z,0.87
2018-09-15T15:03:52.603Z,1.00
2018-09-15T15:06:21.451Z,1.10
2018-09-15T15:08:50.034Z,1.23
2018-09-15T15:11:18.511Z,1.13
2018-09-15T15:13:47.035Z,1.10
2018-09-15T15:16:15.471Z,1.30
2018-09-15T15:18:43.909Z,1.20
2018-09-15T15:21:12.420Z,1.23
2018-09-15T15:23:40.860Z,1.10
2018-09-15T15:26:09.431Z,1.47
2018-09-15T15:28:38.506Z,1.20
2018-09-15T15:31:07.254Z,1.10
2018-09-15T15:33:35.737Z,1.10
2018-09-15T15:36:04.255Z,1.13
2018-09-15T15:38:33.007Z,1.17
2018-09-15T15:41:01.502Z,1.10
2018-09-15T15:43:29.989Z,1.27
2018-09-15T15:45:58.416Z,1.20
2018-09-15T15:48:26.881Z,1.17
2018-09-15T15:50:55.599Z,1.17
2018-09-15T15:53:24.355Z,1.40
2018-09-15T15:55:52.817Z,1.40
2018-09-15T15:58:21.338Z,1.30
2018-09-15T16:00:50.003Z,1.50
2018-09-15T16:03:18.810Z,1.30
2018-09-15T16:05:47.296Z,1.10
2018-09-15T16:08:15.782Z,1.43
2018-09-15T16:10:44.297Z,1.20
2018-09-15T16:13:12.822Z,1.40
2018-09-15T16:15:41.257Z,1.30
2018-09-15T16:18:09.748Z,1.20
2018-09-15T16:20:38.504Z,1.40
2018-09-15T16:23:07.025Z,1.10
2018-09-15T16:25:35.881Z,1.30
2018-09-15T16:28:04.436Z,1.27
2018-09-15T16:30:32.914Z,1.43
2018-09-15T16:33:01.383Z,1.27
2018-09-15T16:35:29.841Z,1.80
2018-09-15T16:37:58.301Z,1.20
2018-09-15T16:40:26.788Z,1.30
2018-09-15T16:42:55.243Z,1.20
2018-09-15T16:45:23.716Z,1.20
2018-09-15T16:47:52.191Z,1.27
2018-09-15T16:50:20.639Z,1.00
2018-09-15T16:52:55.776Z,1.40
2018-09-15T16:55:24.555Z,1.00
2018-09-15T16:57:53.049Z,1.40
2018-09-15T17:00:21.787Z,1.20
2018-09-15T17:02:50.260Z,1.30
2018-09-15T17:05:18.739Z,1.57
2018-09-15T17:07:47.227Z,1.07
2018-09-15T17:10:16.068Z,1.30
2018-09-15T17:12:44.495Z,2.00
2018-09-15T17:15:12.987Z,8.20
2018-09-15T17:17:41.471Z,3.00
2018-09-15T17:20:10.008Z,1.90
2018-09-15T17:22:38.450Z,1.80
2018-09-15T17:25:07.021Z,2.60
2018-09-15T17:27:35.451Z,1.80
2018-09-15T17:30:10.395Z,1.60
2018-09-15T17:32:39.205Z,1.30
2018-09-15T17:35:07.749Z,1.00
2018-09-15T17:37:36.179Z,1.53
2018-09-15T17:40:04.752Z,1.30
2018-09-15T17:42:33.195Z,1.70
2018-09-15T17:45:01.991Z,1.40
2018-09-15T17:47:30.757Z,1.83
2018-09-15T17:49:59.241Z,1.50
2018-09-15T17:52:27.676Z,1.30
2018-09-15T17:54:56.157Z,1.10
2018-09-15T17:57:24.796Z,1.20
2018-09-15T17:59:53.554Z,1.40
2018-09-15T18:02:21.989Z,1.47
2018-09-15T18:04:50.443Z,1.60
2018-09-15T18:07:18.952Z,1.30
2018-09-15T18:09:47.844Z,1.87
2018-09-15T18:12:16.218Z,1.83
2018-09-15T18:14:44.706Z,1.90
2018-09-15T18:17:13.415Z,1.63
2018-09-15T18:19:41.884Z,1.57
2018-09-15T18:22:10.400Z,1.60
2018-09-15T18:24:38.820Z,1.40
2018-09-15T18:27:07.283Z,1.77
2018-09-15T18:29:35.744Z,1.80
2018-09-15T18:32:04.480Z,1.70
2018-09-15T18:34:32.982Z,1.70
2018-09-15T18:37:01.800Z,2.10
2018-09-15T18:39:30.199Z,1.80
2018-09-15T18:41:58.635Z,1.73
2018-09-15T18:44:27.355Z,1.70
2018-09-15T18:46:55.776Z,1.90
2018-09-15T18:49:24.206Z,1.40
2018-09-15T18:51:52.656Z,1.70
2018-09-15T18:54:21.468Z,2.13
2018-09-15T18:56:49.913Z,2.00
2018-09-15T18:59:18.839Z,1.70
2018-09-15T19:01:47.528Z,1.60
2018-09-15T19:04:16.552Z,1.53
2018-09-15T19:06:44.999Z,1.60
2018-09-15T19:09:13.735Z,1.53
2018-09-15T19:11:42.296Z,1.60
2018-09-15T19:14:10.822Z,1.97
2018-09-15T19:16:39.219Z,2.60
2018-09-15T19:19:07.648Z,2.10
2018-09-15T19:21:36.352Z,2.30
2018-09-15T19:24:05.040Z,2.20
2018-09-15T19:26:33.553Z,2.40
2018-09-15T19:29:02.012Z,2.57
2018-09-15T19:31:30.481Z,2.90
2018-09-15T19:33:58.928Z,2.00
2018-09-15T19:36:27.392Z,2.20
2018-09-15T19:38:55.884Z,2.00
2018-09-15T19:41:24.346Z,1.97
2018-09-15T19:43:53.038Z,2.17
2018-09-15T19:46:21.528Z,1.90
2018-09-15T19:48:50.345Z,1.77
2018-09-15T19:51:19.139Z,1.73
2018-09-15T19:53:47.987Z,1.80
2018-09-15T19:56:16.482Z,2.20
2018-09-15T19:58:44.970Z,2.00
2018-09-15T20:01:13.659Z,2.70
2018-09-15T20:03:42.124Z,2.30
2018-09-15T20:06:10.673Z,2.40
2018-09-15T20:08:39.053Z,2.10
2018-09-15T20:11:07.780Z,2.00
2018-09-15T20:13:36.269Z,2.13
2018-09-15T20:16:03.592Z,1.90
2018-09-15T20:18:30.943Z,1.90
2018-09-15T20:20:58.298Z,2.13
2018-09-15T20:23:28.118Z,2.00
2018-09-15T20:25:56.803Z,1.97
2018-09-15T20:28:25.591Z,1.80
2018-09-15T20:30:54.275Z,1.90
2018-09-15T20:33:22.737Z,1.60
2018-09-15T20:35:51.480Z,2.57
2018-09-15T20:38:20.520Z,1.70
2018-09-15T20:40:48.942Z,2.13
2018-09-15T20:43:17.655Z,2.33
2018-09-15T20:45:46.114Z,1.90
2018-09-15T20:48:14.569Z,1.80
2018-09-15T20:50:43.051Z,1.77
2018-09-15T20:53:11.522Z,2.00
2018-09-15T20:55:40.182Z,2.07
2018-09-15T20:58:08.609Z,2.00
2018-09-15T21:00:37.173Z,2.53
2018-09-15T21:03:05.624Z,2.03
2018-09-15T21:05:34.078Z,2.00
2018-09-15T21:08:02.517Z,2.20
2018-09-15T21:10:30.968Z,2.07
2018-09-15T21:12:59.441Z,2.10
2018-09-15T21:15:28.116Z,2.17
2018-09-15T21:17:56.894Z,2.20
2018-09-15T21:20:25.582Z,2.37
2018-09-15T21:22:54.254Z,2.20
2018-09-15T21:25:22.811Z,2.50
2018-09-15T21:27:51.231Z,2.07
2018-09-15T21:30:19.703Z,2.67
2018-09-15T21:32:48.126Z,2.13
2018-09-15T21:35:16.644Z,2.43
2018-09-15T21:37:45.573Z,2.77
2018-09-15T21:40:14.226Z,4.17
2018-09-15T21:42:42.633Z,2.40
2018-09-15T21:45:11.058Z,2.23
2018-09-15T21:47:39.465Z,2.60
2018-09-15T21:50:08.204Z,2.37
2018-09-15T21:52:36.978Z,3.00
2018-09-15T21:55:06.289Z,2.30
2018-09-15T21:57:34.715Z,2.60
2018-09-15T22:00:03.691Z,2.53
2018-09-15T22:02:32.960Z,2.57
2018-09-15T22:05:01.791Z,2.73
2018-09-15T22:07:30.258Z,2.57
2018-09-15T22:09:58.711Z,2.37
2018-09-15T22:12:27.149Z,2.40
2018-09-15T22:14:55.591Z,2.27
2018-09-15T22:17:24.006Z,2.20
2018-09-15T22:19:52.699Z,2.40
2018-09-15T22:22:21.210Z,2.80
2018-09-15T22:24:49.917Z,2.67
2018-09-15T22:27:18.334Z,2.87
2018-09-15T22:29:47.092Z,2.60
2018-09-15T22:32:15.794Z,2.13
2018-09-15T22:34:44.262Z,2.33
2018-09-15T22:37:12.711Z,2.50
2018-09-15T22:39:41.466Z,2.93
2018-09-15T22:42:09.882Z,2.30
2018-09-15T22:44:38.595Z,2.57
2018-09-15T22:47:07.340Z,2.53
2018-09-15T22:49:36.012Z,2.87
2018-09-15T22:52:04.469Z,3.50
2018-09-15T22:54:33.230Z,2.40
2018-09-15T22:57:01.928Z,2.20
2018-09-15T22:59:30.342Z,2.30
2018-09-15T23:01:59.048Z,2.23
2018-09-15T23:04:27.755Z,2.60
2018-09-15T23:06:56.538Z,2.30
2018-09-15T23:09:25.043Z,2.57
2018-09-15T23:11:53.503Z,2.33
2018-09-15T23:14:22.218Z,2.43
2018-09-15T23:16:50.667Z,2.83
2018-09-15T23:19:19.084Z,2.50
2018-09-15T23:21:47.771Z,2.30
2018-09-15T23:24:16.758Z,2.50
2018-09-15T23:26:45.793Z,2.20
2018-09-15T23:29:14.242Z,2.73
2018-09-15T23:31:42.984Z,2.50
2018-09-15T23:34:11.475Z,2.80
2018-09-15T23:36:39.892Z,2.40
2018-09-15T23:39:08.886Z,2.60
2018-09-15T23:41:37.718Z,2.90
2018-09-15T23:44:06.185Z,2.73
2018-09-15T23:46:34.614Z,2.63
2018-09-15T23:49:03.102Z,2.80
2018-09-15T23:51:31.764Z,2.80
2018-09-15T23:54:00.470Z,2.53
2018-09-15T23:56:28.917Z,2.67
2018-09-15T23:58:57.600Z,3.00
